Aviation Digital Data Service (ADDS)

Output produced by METARs form (1138 UTC 18 June 2019)
found at http://www.aviationweather.gov/metar/data/
 
Forecast for: RJOA (NEW HIROSHIMA , JP)
Text: TAF RJOA 181105Z 1812/1918 30004KT 9999 FEW030
Forecast period: 1200 UTC 18 June 2019 to 0000 UTC 19 June 2019
Forecast type: FROM: standard forecast or significant change
Winds: from the WNW (300 degrees) at 5 MPH (4 knots; 2.1 m/s)
Visibility: 6 or more miles 10+ km)
Ceiling: at least 12,000 feet AGL
Clouds: few clouds at 3000 feet AGL
Weather: no significant weather forecast for this period
Text: BECMG 1900/1903 15005KT
Forecast period: 0000 to 0900 UTC 19 June 2019
Forecast type: BECOMING: Conditions expected to become as follows by 0300 UTC 19 June 2019
Winds: from the SSE (150 degrees) at 6 MPH (5 knots; 2.6 m/s)
Visibility: 6 or more miles 10+ km)
Ceiling: at least 12,000 feet AGL
Clouds: few clouds at 3000 feet AGL
Weather: no significant weather forecast for this period
Text: BECMG 1909/1912 32004KT
Forecast period: 0900 to 1800 UTC 19 June 2019
Forecast type: BECOMING: Conditions expected to become as follows by 1200 UTC 19 June 2019
Winds: from the NW (320 degrees) at 5 MPH (4 knots; 2.1 m/s)
Visibility: 6 or more miles 10+ km)
Ceiling: at least 12,000 feet AGL
Clouds: few clouds at 3000 feet AGL
Weather: no significant weather forecast for this period